首页
METAR-TAF:

METAR-TAF

机场 :

何塞·玛丽亚·科尔多瓦国际机场

麦德林 / Rionegro, 哥伦比亚

纬度: 06-08N, 经度: 075-26W, 海拔: 2140米

当前天气观测

该预报发布于58分钟前的01:00 UTC
风速2节,风向多变
温度 17°C
湿度 94%
气压 1027 hPa
能见度10公里或以上
散云层高于1000英尺, 塔状积云.
散云层高于6000英尺
附近有阵雨

METAR: SKRG 250100Z VRB02KT 9999 VCSH SCT010TCU SCT060 17/16 Q1027 TEMPO FM0200 RA SCT008CB RMK TCUVCSH/E/S

时间: 20:58 (01:58 UTC)

预报

该预报发布于3小时和28分钟前的22:30 UTC
预报有效从25日的 00点(UTC)到 25日的 24点(UTC)
风速2节,风向多变
能见度10公里或以上
散云层高于1500英尺
短暂存在
从 25日的 03点(UTC)到 25日的 07点(UTC)
多云层高于1000英尺
短暂存在
从 25日的 08点(UTC)到 25日的 12点(UTC)
能見度: 4000
多云层高于500英尺
碎片雾
成为
从 25日的 13点(UTC)到 25日的 15点(UTC)
风速10节,风向东转东南
短暂存在
从 25日的 19点(UTC)到 25日的 23点(UTC)
散云层高于2000英尺, 积雨云.
雷暴,

TAF: SKRG 242230Z 2500/2524 VRB02KT 9999 SCT015 TEMPO 2503/2507 RA BKN010 TEMPO 2508/2512 4000 BCFG BKN005 BECMG 2513/2515 12010KT TEMPO 2519/2523 TS SCT020CB TX24/2518Z TN14/2510Z

超过4000个机场的气象观测和天气预报(METAR&TAF报告)。

可查询的气象台以黄色和红色小点在地图上表示。

将鼠标移到小点上方,可查看气象台名称。

然后点击查看天气观测和预报。

如需切换地图:点击带黑十字的绿色按钮放大地图;点击带横线的绿色按钮缩小地图;或者点击绿色箭头查看邻近地区的地图。


METAR-TAF: